sensor_id;sensor_type;location;lat;lon;timestamp;P1;P2;P0
69224;PMS1003;56333;51.306;17.056;2024-01-10T00:00:15;85.50;28.60;
69224;PMS1003;56333;51.306;17.056;2024-01-10T00:01:59;68.70;25.40;
69224;PMS1003;56333;51.306;17.056;2024-01-10T00:03:24;53.10;18.50;
69224;PMS1003;56333;51.306;17.056;2024-01-10T00:04:48;58.90;22.40;
69224;PMS1003;56333;51.306;17.056;2024-01-10T00:06:12;101.20;33.20;
69224;PMS1003;56333;51.306;17.056;2024-01-10T00:07:36;56.00;19.80;
69224;PMS1003;56333;51.306;17.056;2024-01-10T00:09:00;69.10;24.10;
69224;PMS1003;56333;51.306;17.056;2024-01-10T00:10:25;75.80;26.80;
69224;PMS1003;56333;51.306;17.056;2024-01-10T00:11:49;76.20;27.10;
69224;PMS1003;56333;51.306;17.056;2024-01-10T00:13:14;61.40;23.00;
69224;PMS1003;56333;51.306;17.056;2024-01-10T00:14:38;92.80;33.10;
69224;PMS1003;56333;51.306;17.056;2024-01-10T00:16:02;82.50;27.70;
69224;PMS1003;56333;51.306;17.056;2024-01-10T00:17:27;51.00;16.40;
69224;PMS1003;56333;51.306;17.056;2024-01-10T00:18:51;58.40;21.10;
69224;PMS1003;56333;51.306;17.056;2024-01-10T00:20:16;55.10;17.90;
69224;PMS1003;56333;51.306;17.056;2024-01-10T00:21:41;72.70;23.00;
69224;PMS1003;56333;51.306;17.056;2024-01-10T00:23:05;69.90;21.80;
69224;PMS1003;56333;51.306;17.056;2024-01-10T00:24:29;64.00;22.40;
69224;PMS1003;56333;51.306;17.056;2024-01-10T00:25:55;64.40;21.10;
69224;PMS1003;56333;51.306;17.056;2024-01-10T00:27:19;67.60;24.20;
69224;PMS1003;56333;51.306;17.056;2024-01-10T00:28:43;53.60;19.90;
69224;PMS1003;56333;51.306;17.056;2024-01-10T00:30:10;66.10;22.80;
69224;PMS1003;56333;51.306;17.056;2024-01-10T00:31:34;86.60;29.10;
69224;PMS1003;56333;51.306;17.056;2024-01-10T00:32:58;84.60;27.80;
69224;PMS1003;56333;51.306;17.056;2024-01-10T00:34:22;71.70;28.40;
69224;PMS1003;56333;51.306;17.056;2024-01-10T00:35:46;81.70;30.60;
69224;PMS1003;56333;51.306;17.056;2024-01-10T00:37:11;84.80;31.60;
69224;PMS1003;56333;51.306;17.056;2024-01-10T00:38:36;99.10;32.60;
69224;PMS1003;56333;51.306;17.056;2024-01-10T00:39:59;86.80;30.90;
69224;PMS1003;56333;51.306;17.056;2024-01-10T00:41:24;83.80;29.80;
69224;PMS1003;56333;51.306;17.056;2024-01-10T00:42:48;94.10;34.30;
69224;PMS1003;56333;51.306;17.056;2024-01-10T00:44:13;84.30;30.90;
69224;PMS1003;56333;51.306;17.056;2024-01-10T00:45:37;77.90;28.50;
69224;PMS1003;56333;51.306;17.056;2024-01-10T00:47:01;85.90;29.80;
69224;PMS1003;56333;51.306;17.056;2024-01-10T00:48:25;91.10;32.70;
69224;PMS1003;56333;51.306;17.056;2024-01-10T00:49:49;96.90;33.00;
69224;PMS1003;56333;51.306;17.056;2024-01-10T00:51:14;88.20;31.80;
69224;PMS1003;56333;51.306;17.056;2024-01-10T00:52:39;84.70;30.60;
69224;PMS1003;56333;51.306;17.056;2024-01-10T00:54:03;88.20;32.40;
69224;PMS1003;56333;51.306;17.056;2024-01-10T00:55:28;78.60;28.90;
69224;PMS1003;56333;51.306;17.056;2024-01-10T00:56:52;84.90;31.40;
69224;PMS1003;56333;51.306;17.056;2024-01-10T00:58:16;82.90;29.80;
69224;PMS1003;56333;51.306;17.056;2024-01-10T00:59:40;64.60;24.50;
69224;PMS1003;56333;51.306;17.056;2024-01-10T01:01:04;88.70;32.10;
69224;PMS1003;56333;51.306;17.056;2024-01-10T01:02:28;92.10;32.10;
69224;PMS1003;56333;51.306;17.056;2024-01-10T01:03:52;94.80;32.40;
69224;PMS1003;56333;51.306;17.056;2024-01-10T01:05:17;86.40;32.00;
69224;PMS1003;56333;51.306;17.056;2024-01-10T01:06:41;99.90;35.50;
69224;PMS1003;56333;51.306;17.056;2024-01-10T01:08:06;93.00;34.50;
69224;PMS1003;56333;51.306;17.056;2024-01-10T01:09:30;95.50;34.90;
69224;PMS1003;56333;51.306;17.056;2024-01-10T01:10:55;92.70;35.10;
69224;PMS1003;56333;51.306;17.056;2024-01-10T01:12:19;93.70;34.30;
69224;PMS1003;56333;51.306;17.056;2024-01-10T01:13:43;87.10;33.00;
69224;PMS1003;56333;51.306;17.056;2024-01-10T01:15:09;94.40;34.10;
69224;PMS1003;56333;51.306;17.056;2024-01-10T01:16:33;99.40;35.90;
69224;PMS1003;56333;51.306;17.056;2024-01-10T01:17:57;98.30;35.90;
69224;PMS1003;56333;51.306;17.056;2024-01-10T01:19:21;95.40;34.20;
69224;PMS1003;56333;51.306;17.056;2024-01-10T01:20:46;100.20;34.70;
69224;PMS1003;56333;51.306;17.056;2024-01-10T01:22:13;87.30;31.80;
69224;PMS1003;56333;51.306;17.056;2024-01-10T01:23:37;84.30;32.80;
69224;PMS1003;56333;51.306;17.056;2024-01-10T01:25:01;86.20;30.60;
69224;PMS1003;56333;51.306;17.056;2024-01-10T01:26:25;81.60;30.40;
69224;PMS1003;56333;51.306;17.056;2024-01-10T01:27:49;88.60;31.30;
69224;PMS1003;56333;51.306;17.056;2024-01-10T01:29:14;95.60;32.80;
69224;PMS1003;56333;51.306;17.056;2024-01-10T01:30:38;91.30;32.80;
69224;PMS1003;56333;51.306;17.056;2024-01-10T01:32:02;94.80;31.60;
69224;PMS1003;56333;51.306;17.056;2024-01-10T01:33:27;92.40;32.50;
69224;PMS1003;56333;51.306;17.056;2024-01-10T01:34:51;89.40;32.60;
69224;PMS1003;56333;51.306;17.056;2024-01-10T01:36:15;91.20;31.80;
69224;PMS1003;56333;51.306;17.056;2024-01-10T01:37:39;98.60;32.60;
69224;PMS1003;56333;51.306;17.056;2024-01-10T01:39:03;93.40;32.30;
69224;PMS1003;56333;51.306;17.056;2024-01-10T01:40:28;90.60;32.60;
69224;PMS1003;56333;51.306;17.056;2024-01-10T01:41:52;83.30;29.50;
69224;PMS1003;56333;51.306;17.056;2024-01-10T01:43:22;82.30;29.50;
69224;PMS1003;56333;51.306;17.056;2024-01-10T01:44:46;83.50;30.60;
69224;PMS1003;56333;51.306;17.056;2024-01-10T01:46:11;76.80;27.10;
69224;PMS1003;56333;51.306;17.056;2024-01-10T01:47:35;89.60;31.10;
69224;PMS1003;56333;51.306;17.056;2024-01-10T01:49:00;82.70;30.80;
69224;PMS1003;56333;51.306;17.056;2024-01-10T01:50:24;81.50;31.10;
69224;PMS1003;56333;51.306;17.056;2024-01-10T01:51:48;81.90;29.10;
69224;PMS1003;56333;51.306;17.056;2024-01-10T01:53:13;64.30;23.10;
69224;PMS1003;56333;51.306;17.056;2024-01-10T01:54:37;84.80;29.30;
69224;PMS1003;56333;51.306;17.056;2024-01-10T01:56:04;83.50;30.50;
69224;PMS1003;56333;51.306;17.056;2024-01-10T01:57:30;79.20;29.20;
69224;PMS1003;56333;51.306;17.056;2024-01-10T01:58:55;66.10;23.20;
69224;PMS1003;56333;51.306;17.056;2024-01-10T02:00:19;81.80;29.50;
69224;PMS1003;56333;51.306;17.056;2024-01-10T02:01:43;75.90;28.30;
69224;PMS1003;56333;51.306;17.056;2024-01-10T02:03:09;71.60;24.90;
69224;PMS1003;56333;51.306;17.056;2024-01-10T02:04:33;60.90;21.30;
69224;PMS1003;56333;51.306;17.056;2024-01-10T02:05:58;63.40;22.40;
69224;PMS1003;56333;51.306;17.056;2024-01-10T02:07:22;76.00;27.40;
69224;PMS1003;56333;51.306;17.056;2024-01-10T02:08:46;71.40;23.50;
69224;PMS1003;56333;51.306;17.056;2024-01-10T02:10:11;66.00;23.20;
69224;PMS1003;56333;51.306;17.056;2024-01-10T02:11:36;56.50;19.90;
69224;PMS1003;56333;51.306;17.056;2024-01-10T02:13:00;66.90;24.10;
69224;PMS1003;56333;51.306;17.056;2024-01-10T02:14:25;62.10;21.40;
69224;PMS1003;56333;51.306;17.056;2024-01-10T02:15:49;51.50;19.00;
69224;PMS1003;56333;51.306;17.056;2024-01-10T02:17:14;52.60;19.30;
69224;PMS1003;56333;51.306;17.056;2024-01-10T02:18:39;61.90;22.30;
69224;PMS1003;56333;51.306;17.056;2024-01-10T02:20:10;45.60;16.60;
69224;PMS1003;56333;51.306;17.056;2024-01-10T02:21:35;64.60;25.00;
69224;PMS1003;56333;51.306;17.056;2024-01-10T02:22:59;77.40;27.20;
69224;PMS1003;56333;51.306;17.056;2024-01-10T02:24:23;64.70;22.10;
69224;PMS1003;56333;51.306;17.056;2024-01-10T02:25:48;61.40;21.30;
69224;PMS1003;56333;51.306;17.056;2024-01-10T02:27:12;64.10;22.70;
69224;PMS1003;56333;51.306;17.056;2024-01-10T02:28:36;61.50;22.20;
69224;PMS1003;56333;51.306;17.056;2024-01-10T02:30:02;55.60;20.60;
69224;PMS1003;56333;51.306;17.056;2024-01-10T02:31:27;48.50;14.90;
69224;PMS1003;56333;51.306;17.056;2024-01-10T02:32:52;59.90;20.00;
69224;PMS1003;56333;51.306;17.056;2024-01-10T02:34:16;76.70;26.60;
69224;PMS1003;56333;51.306;17.056;2024-01-10T02:35:40;87.60;28.00;
69224;PMS1003;56333;51.306;17.056;2024-01-10T02:37:04;57.20;20.10;
69224;PMS1003;56333;51.306;17.056;2024-01-10T02:38:28;61.70;21.50;
69224;PMS1003;56333;51.306;17.056;2024-01-10T02:39:52;56.90;20.30;
69224;PMS1003;56333;51.306;17.056;2024-01-10T02:41:16;77.40;26.20;
69224;PMS1003;56333;51.306;17.056;2024-01-10T02:42:42;42.30;14.70;
69224;PMS1003;56333;51.306;17.056;2024-01-10T02:44:06;54.60;17.40;
69224;PMS1003;56333;51.306;17.056;2024-01-10T02:45:30;50.20;17.00;
69224;PMS1003;56333;51.306;17.056;2024-01-10T02:46:55;66.10;22.80;
69224;PMS1003;56333;51.306;17.056;2024-01-10T02:48:19;72.00;24.70;
69224;PMS1003;56333;51.306;17.056;2024-01-10T02:49:43;64.00;22.20;
69224;PMS1003;56333;51.306;17.056;2024-01-10T02:51:08;67.10;23.40;
69224;PMS1003;56333;51.306;17.056;2024-01-10T02:52:32;82.30;28.70;
69224;PMS1003;56333;51.306;17.056;2024-01-10T02:53:56;84.30;28.40;
69224;PMS1003;56333;51.306;17.056;2024-01-10T02:55:20;88.20;29.30;
69224;PMS1003;56333;51.306;17.056;2024-01-10T02:56:44;88.70;29.20;
69224;PMS1003;56333;51.306;17.056;2024-01-10T02:58:08;79.40;28.00;
69224;PMS1003;56333;51.306;17.056;2024-01-10T02:59:33;83.50;28.10;
69224;PMS1003;56333;51.306;17.056;2024-01-10T03:00:57;86.10;28.40;
69224;PMS1003;56333;51.306;17.056;2024-01-10T03:02:22;91.70;29.70;
69224;PMS1003;56333;51.306;17.056;2024-01-10T03:03:46;88.10;28.60;
69224;PMS1003;56333;51.306;17.056;2024-01-10T03:05:10;78.90;28.60;
69224;PMS1003;56333;51.306;17.056;2024-01-10T03:06:34;81.70;28.20;
69224;PMS1003;56333;51.306;17.056;2024-01-10T03:07:58;53.50;18.80;
69224;PMS1003;56333;51.306;17.056;2024-01-10T03:09:24;87.50;27.80;
69224;PMS1003;56333;51.306;17.056;2024-01-10T03:10:48;73.10;26.20;
69224;PMS1003;56333;51.306;17.056;2024-01-10T03:12:12;65.90;24.40;
69224;PMS1003;56333;51.306;17.056;2024-01-10T03:13:36;67.00;23.00;
69224;PMS1003;56333;51.306;17.056;2024-01-10T03:15:01;60.90;22.20;
69224;PMS1003;56333;51.306;17.056;2024-01-10T03:16:26;71.20;26.60;
69224;PMS1003;56333;51.306;17.056;2024-01-10T03:17:50;86.40;29.50;
69224;PMS1003;56333;51.306;17.056;2024-01-10T03:19:14;78.20;26.60;
69224;PMS1003;56333;51.306;17.056;2024-01-10T03:20:38;84.40;29.20;
69224;PMS1003;56333;51.306;17.056;2024-01-10T03:22:03;97.60;31.00;
69224;PMS1003;56333;51.306;17.056;2024-01-10T03:23:27;89.70;31.10;
69224;PMS1003;56333;51.306;17.056;2024-01-10T03:24:51;90.20;30.60;
69224;PMS1003;56333;51.306;17.056;2024-01-10T03:26:16;89.00;29.10;
69224;PMS1003;56333;51.306;17.056;2024-01-10T03:27:40;92.70;29.50;
69224;PMS1003;56333;51.306;17.056;2024-01-10T03:29:05;86.80;29.60;
69224;PMS1003;56333;51.306;17.056;2024-01-10T03:30:29;62.90;20.40;
69224;PMS1003;56333;51.306;17.056;2024-01-10T03:31:53;92.60;31.30;
69224;PMS1003;56333;51.306;17.056;2024-01-10T03:33:17;83.90;29.50;
69224;PMS1003;56333;51.306;17.056;2024-01-10T03:34:43;85.50;30.40;
69224;PMS1003;56333;51.306;17.056;2024-01-10T03:36:11;86.60;29.40;
69224;PMS1003;56333;51.306;17.056;2024-01-10T03:37:38;74.30;26.70;
69224;PMS1003;56333;51.306;17.056;2024-01-10T03:39:01;68.20;22.60;
69224;PMS1003;56333;51.306;17.056;2024-01-10T03:40:26;83.40;30.90;
69224;PMS1003;56333;51.306;17.056;2024-01-10T03:41:50;94.20;32.90;
69224;PMS1003;56333;51.306;17.056;2024-01-10T03:43:14;97.10;35.30;
69224;PMS1003;56333;51.306;17.056;2024-01-10T03:44:39;107.60;34.30;
69224;PMS1003;56333;51.306;17.056;2024-01-10T03:46:04;101.10;35.50;
69224;PMS1003;56333;51.306;17.056;2024-01-10T03:47:28;76.80;29.40;
69224;PMS1003;56333;51.306;17.056;2024-01-10T03:48:52;104.20;34.60;
69224;PMS1003;56333;51.306;17.056;2024-01-10T03:50:17;88.00;31.70;
69224;PMS1003;56333;51.306;17.056;2024-01-10T03:51:42;81.90;27.50;
69224;PMS1003;56333;51.306;17.056;2024-01-10T03:53:06;108.30;34.30;
69224;PMS1003;56333;51.306;17.056;2024-01-10T03:54:30;106.00;35.80;
69224;PMS1003;56333;51.306;17.056;2024-01-10T03:55:54;99.10;32.60;
69224;PMS1003;56333;51.306;17.056;2024-01-10T03:57:18;103.20;35.50;
69224;PMS1003;56333;51.306;17.056;2024-01-10T03:58:43;74.20;26.80;
69224;PMS1003;56333;51.306;17.056;2024-01-10T04:00:09;85.80;29.90;
69224;PMS1003;56333;51.306;17.056;2024-01-10T04:01:34;83.80;29.90;
69224;PMS1003;56333;51.306;17.056;2024-01-10T04:03:01;77.00;25.20;
69224;PMS1003;56333;51.306;17.056;2024-01-10T04:04:26;81.00;27.40;
69224;PMS1003;56333;51.306;17.056;2024-01-10T04:05:49;93.30;31.80;
69224;PMS1003;56333;51.306;17.056;2024-01-10T04:07:13;79.00;26.50;
69224;PMS1003;56333;51.306;17.056;2024-01-10T04:08:38;90.70;31.90;
69224;PMS1003;56333;51.306;17.056;2024-01-10T04:10:02;85.70;32.40;
69224;PMS1003;56333;51.306;17.056;2024-01-10T04:11:27;60.40;22.50;
69224;PMS1003;56333;51.306;17.056;2024-01-10T04:12:51;73.60;24.80;
69224;PMS1003;56333;51.306;17.056;2024-01-10T04:14:16;81.10;26.50;
69224;PMS1003;56333;51.306;17.056;2024-01-10T04:15:40;86.40;29.40;
69224;PMS1003;56333;51.306;17.056;2024-01-10T04:17:04;93.20;27.70;
69224;PMS1003;56333;51.306;17.056;2024-01-10T04:18:29;56.90;19.80;
69224;PMS1003;56333;51.306;17.056;2024-01-10T04:19:54;52.30;16.50;
69224;PMS1003;56333;51.306;17.056;2024-01-10T04:21:18;83.70;27.90;
69224;PMS1003;56333;51.306;17.056;2024-01-10T04:22:42;89.40;29.20;
69224;PMS1003;56333;51.306;17.056;2024-01-10T04:24:06;103.10;33.30;
69224;PMS1003;56333;51.306;17.056;2024-01-10T04:25:30;62.50;22.10;
69224;PMS1003;56333;51.306;17.056;2024-01-10T04:26:54;82.60;27.70;
69224;PMS1003;56333;51.306;17.056;2024-01-10T04:28:19;53.10;18.70;
69224;PMS1003;56333;51.306;17.056;2024-01-10T04:29:43;93.40;33.30;
69224;PMS1003;56333;51.306;17.056;2024-01-10T04:31:07;89.00;31.20;
69224;PMS1003;56333;51.306;17.056;2024-01-10T04:32:31;64.40;22.90;
69224;PMS1003;56333;51.306;17.056;2024-01-10T04:33:55;72.80;23.50;
69224;PMS1003;56333;51.306;17.056;2024-01-10T04:35:19;69.60;24.20;
69224;PMS1003;56333;51.306;17.056;2024-01-10T04:36:43;87.00;29.70;
69224;PMS1003;56333;51.306;17.056;2024-01-10T04:38:07;100.20;33.90;
69224;PMS1003;56333;51.306;17.056;2024-01-10T04:39:30;68.70;23.80;
69224;PMS1003;56333;51.306;17.056;2024-01-10T04:40:54;55.20;20.00;
69224;PMS1003;56333;51.306;17.056;2024-01-10T04:42:19;99.00;32.80;
69224;PMS1003;56333;51.306;17.056;2024-01-10T04:43:43;79.60;24.50;
69224;PMS1003;56333;51.306;17.056;2024-01-10T04:45:08;83.00;28.60;
69224;PMS1003;56333;51.306;17.056;2024-01-10T04:46:33;94.70;30.80;
69224;PMS1003;56333;51.306;17.056;2024-01-10T04:47:57;80.70;29.60;
69224;PMS1003;56333;51.306;17.056;2024-01-10T04:49:20;75.60;27.60;
69224;PMS1003;56333;51.306;17.056;2024-01-10T04:50:44;88.20;29.80;
69224;PMS1003;56333;51.306;17.056;2024-01-10T04:52:09;70.20;25.10;
69224;PMS1003;56333;51.306;17.056;2024-01-10T04:53:33;84.30;28.30;
69224;PMS1003;56333;51.306;17.056;2024-01-10T04:54:57;75.10;28.00;
69224;PMS1003;56333;51.306;17.056;2024-01-10T04:56:21;94.30;34.60;
69224;PMS1003;56333;51.306;17.056;2024-01-10T04:57:45;91.50;32.50;
69224;PMS1003;56333;51.306;17.056;2024-01-10T04:59:09;98.00;33.10;
69224;PMS1003;56333;51.306;17.056;2024-01-10T05:00:34;74.00;26.60;
69224;PMS1003;56333;51.306;17.056;2024-01-10T05:01:58;95.00;33.50;
69224;PMS1003;56333;51.306;17.056;2024-01-10T05:03:22;101.40;35.80;
69224;PMS1003;56333;51.306;17.056;2024-01-10T05:04:46;107.50;38.30;
69224;PMS1003;56333;51.306;17.056;2024-01-10T05:06:12;109.10;38.40;
69224;PMS1003;56333;51.306;17.056;2024-01-10T05:07:36;88.90;31.80;
69224;PMS1003;56333;51.306;17.056;2024-01-10T05:09:00;91.40;32.80;
69224;PMS1003;56333;51.306;17.056;2024-01-10T05:10:24;100.70;35.30;
69224;PMS1003;56333;51.306;17.056;2024-01-10T05:11:48;101.50;36.10;
69224;PMS1003;56333;51.306;17.056;2024-01-10T05:13:14;89.60;28.10;
69224;PMS1003;56333;51.306;17.056;2024-01-10T05:14:38;82.90;29.60;
69224;PMS1003;56333;51.306;17.056;2024-01-10T05:16:02;67.70;21.90;
69224;PMS1003;56333;51.306;17.056;2024-01-10T05:17:26;80.10;30.40;
69224;PMS1003;56333;51.306;17.056;2024-01-10T05:18:50;90.40;31.50;
69224;PMS1003;56333;51.306;17.056;2024-01-10T05:20:15;71.60;25.00;
69224;PMS1003;56333;51.306;17.056;2024-01-10T05:21:38;119.10;43.40;
69224;PMS1003;56333;51.306;17.056;2024-01-10T05:23:03;114.20;38.10;
69224;PMS1003;56333;51.306;17.056;2024-01-10T05:24:28;103.60;36.10;
69224;PMS1003;56333;51.306;17.056;2024-01-10T05:25:51;91.90;32.90;
69224;PMS1003;56333;51.306;17.056;2024-01-10T05:27:16;103.10;33.80;
69224;PMS1003;56333;51.306;17.056;2024-01-10T05:28:40;104.10;37.90;
69224;PMS1003;56333;51.306;17.056;2024-01-10T05:30:07;65.30;20.10;
69224;PMS1003;56333;51.306;17.056;2024-01-10T05:31:34;78.30;28.80;
69224;PMS1003;56333;51.306;17.056;2024-01-10T05:32:59;85.30;28.90;
69224;PMS1003;56333;51.306;17.056;2024-01-10T05:34:23;104.90;38.00;
69224;PMS1003;56333;51.306;17.056;2024-01-10T05:35:47;73.90;26.70;
69224;PMS1003;56333;51.306;17.056;2024-01-10T05:37:11;101.10;34.00;
69224;PMS1003;56333;51.306;17.056;2024-01-10T05:38:35;65.60;23.00;
69224;PMS1003;56333;51.306;17.056;2024-01-10T05:39:59;96.60;34.00;
69224;PMS1003;56333;51.306;17.056;2024-01-10T05:41:24;68.20;24.60;
69224;PMS1003;56333;51.306;17.056;2024-01-10T05:42:48;91.90;32.90;
69224;PMS1003;56333;51.306;17.056;2024-01-10T05:44:12;88.40;29.30;
69224;PMS1003;56333;51.306;17.056;2024-01-10T05:45:37;65.80;22.70;
69224;PMS1003;56333;51.306;17.056;2024-01-10T05:47:01;89.70;32.80;
69224;PMS1003;56333;51.306;17.056;2024-01-10T05:48:25;90.60;31.90;
69224;PMS1003;56333;51.306;17.056;2024-01-10T05:49:50;99.80;35.20;
69224;PMS1003;56333;51.306;17.056;2024-01-10T05:51:16;97.70;32.70;
69224;PMS1003;56333;51.306;17.056;2024-01-10T05:52:40;94.60;34.00;
69224;PMS1003;56333;51.306;17.056;2024-01-10T05:54:05;100.00;34.50;
69224;PMS1003;56333;51.306;17.056;2024-01-10T05:55:30;105.10;33.00;
69224;PMS1003;56333;51.306;17.056;2024-01-10T05:56:55;110.00;37.10;
69224;PMS1003;56333;51.306;17.056;2024-01-10T05:58:19;105.60;37.40;
69224;PMS1003;56333;51.306;17.056;2024-01-10T05:59:43;99.60;34.70;
69224;PMS1003;56333;51.306;17.056;2024-01-10T06:01:07;88.80;32.80;
69224;PMS1003;56333;51.306;17.056;2024-01-10T06:02:32;108.50;34.60;
69224;PMS1003;56333;51.306;17.056;2024-01-10T06:03:57;107.50;36.60;
69224;PMS1003;56333;51.306;17.056;2024-01-10T06:05:21;91.20;33.20;
69224;PMS1003;56333;51.306;17.056;2024-01-10T06:06:45;103.10;35.30;
69224;PMS1003;56333;51.306;17.056;2024-01-10T06:08:09;116.30;39.40;
69224;PMS1003;56333;51.306;17.056;2024-01-10T06:09:33;99.10;35.70;
69224;PMS1003;56333;51.306;17.056;2024-01-10T06:10:57;96.50;37.10;
69224;PMS1003;56333;51.306;17.056;2024-01-10T06:12:22;118.20;40.00;
69224;PMS1003;56333;51.306;17.056;2024-01-10T06:13:46;112.70;38.90;
69224;PMS1003;56333;51.306;17.056;2024-01-10T06:15:11;108.60;35.10;
69224;PMS1003;56333;51.306;17.056;2024-01-10T06:16:35;110.90;39.10;
69224;PMS1003;56333;51.306;17.056;2024-01-10T06:17:59;105.90;37.00;
69224;PMS1003;56333;51.306;17.056;2024-01-10T06:19:24;112.40;38.50;
69224;PMS1003;56333;51.306;17.056;2024-01-10T06:20:48;117.00;39.10;
69224;PMS1003;56333;51.306;17.056;2024-01-10T06:22:12;126.10;42.70;
69224;PMS1003;56333;51.306;17.056;2024-01-10T06:23:36;131.80;41.60;
69224;PMS1003;56333;51.306;17.056;2024-01-10T06:25:01;151.70;49.30;
69224;PMS1003;56333;51.306;17.056;2024-01-10T06:26:25;160.90;49.80;
69224;PMS1003;56333;51.306;17.056;2024-01-10T06:27:49;162.80;51.10;
69224;PMS1003;56333;51.306;17.056;2024-01-10T06:29:13;148.90;50.60;
69224;PMS1003;56333;51.306;17.056;2024-01-10T06:30:37;201.80;65.00;
69224;PMS1003;56333;51.306;17.056;2024-01-10T06:32:01;142.40;49.50;
69224;PMS1003;56333;51.306;17.056;2024-01-10T06:33:25;154.40;50.50;
69224;PMS1003;56333;51.306;17.056;2024-01-10T06:34:49;136.70;46.00;
69224;PMS1003;56333;51.306;17.056;2024-01-10T06:36:13;88.40;29.70;
69224;PMS1003;56333;51.306;17.056;2024-01-10T06:37:38;68.50;24.10;
69224;PMS1003;56333;51.306;17.056;2024-01-10T06:39:03;105.60;40.20;
69224;PMS1003;56333;51.306;17.056;2024-01-10T06:40:27;107.80;39.00;
69224;PMS1003;56333;51.306;17.056;2024-01-10T06:41:52;102.30;37.50;
69224;PMS1003;56333;51.306;17.056;2024-01-10T06:43:16;117.90;39.10;
69224;PMS1003;56333;51.306;17.056;2024-01-10T06:44:41;112.80;38.70;
69224;PMS1003;56333;51.306;17.056;2024-01-10T06:46:05;128.10;43.20;
69224;PMS1003;56333;51.306;17.056;2024-01-10T06:47:29;110.40;36.40;
69224;PMS1003;56333;51.306;17.056;2024-01-10T06:48:53;81.90;29.00;
69224;PMS1003;56333;51.306;17.056;2024-01-10T06:50:18;82.40;29.50;
69224;PMS1003;56333;51.306;17.056;2024-01-10T06:51:42;137.10;47.60;
69224;PMS1003;56333;51.306;17.056;2024-01-10T06:53:07;83.10;31.70;
69224;PMS1003;56333;51.306;17.056;2024-01-10T06:54:31;87.60;31.10;
69224;PMS1003;56333;51.306;17.056;2024-01-10T06:55:55;100.10;35.80;
69224;PMS1003;56333;51.306;17.056;2024-01-10T06:57:19;79.10;27.90;
69224;PMS1003;56333;51.306;17.056;2024-01-10T06:58:43;78.70;27.90;
69224;PMS1003;56333;51.306;17.056;2024-01-10T07:00:11;90.50;34.00;
69224;PMS1003;56333;51.306;17.056;2024-01-10T07:01:36;93.20;33.40;
69224;PMS1003;56333;51.306;17.056;2024-01-10T07:03:03;99.00;34.00;
69224;PMS1003;56333;51.306;17.056;2024-01-10T07:04:27;69.70;23.40;
69224;PMS1003;56333;51.306;17.056;2024-01-10T07:05:51;63.60;23.60;
69224;PMS1003;56333;51.306;17.056;2024-01-10T07:07:15;93.80;33.40;
69224;PMS1003;56333;51.306;17.056;2024-01-10T07:08:40;50.90;18.30;
69224;PMS1003;56333;51.306;17.056;2024-01-10T07:10:07;55.50;17.60;
69224;PMS1003;56333;51.306;17.056;2024-01-10T07:11:33;108.00;36.70;
69224;PMS1003;56333;51.306;17.056;2024-01-10T07:12:57;53.40;18.90;
69224;PMS1003;56333;51.306;17.056;2024-01-10T07:14:21;97.30;33.30;
69224;PMS1003;56333;51.306;17.056;2024-01-10T07:15:45;87.10;31.80;
69224;PMS1003;56333;51.306;17.056;2024-01-10T07:17:10;79.20;26.90;
69224;PMS1003;56333;51.306;17.056;2024-01-10T07:18:34;82.80;27.80;
69224;PMS1003;56333;51.306;17.056;2024-01-10T07:19:59;96.30;32.20;
69224;PMS1003;56333;51.306;17.056;2024-01-10T07:21:23;74.20;25.10;
69224;PMS1003;56333;51.306;17.056;2024-01-10T07:22:47;94.40;33.60;
69224;PMS1003;56333;51.306;17.056;2024-01-10T07:24:11;73.50;26.40;
69224;PMS1003;56333;51.306;17.056;2024-01-10T07:25:36;69.30;24.30;
69224;PMS1003;56333;51.306;17.056;2024-01-10T07:27:00;101.10;35.00;
69224;PMS1003;56333;51.306;17.056;2024-01-10T07:28:24;62.40;20.20;
69224;PMS1003;56333;51.306;17.056;2024-01-10T07:29:48;101.80;35.90;
69224;PMS1003;56333;51.306;17.056;2024-01-10T07:31:13;109.10;36.90;
69224;PMS1003;56333;51.306;17.056;2024-01-10T07:32:38;78.00;28.70;
69224;PMS1003;56333;51.306;17.056;2024-01-10T07:34:03;50.80;18.50;
69224;PMS1003;56333;51.306;17.056;2024-01-10T07:35:27;95.20;34.20;
69224;PMS1003;56333;51.306;17.056;2024-01-10T07:36:53;105.70;36.90;
69224;PMS1003;56333;51.306;17.056;2024-01-10T07:38:17;124.70;41.30;
69224;PMS1003;56333;51.306;17.056;2024-01-10T07:39:41;113.30;39.40;
69224;PMS1003;56333;51.306;17.056;2024-01-10T07:41:05;110.30;39.80;
69224;PMS1003;56333;51.306;17.056;2024-01-10T07:42:29;98.80;32.90;
69224;PMS1003;56333;51.306;17.056;2024-01-10T07:43:54;113.50;39.00;
69224;PMS1003;56333;51.306;17.056;2024-01-10T07:45:18;96.20;33.00;
69224;PMS1003;56333;51.306;17.056;2024-01-10T07:46:43;105.60;37.80;
69224;PMS1003;56333;51.306;17.056;2024-01-10T07:48:08;112.50;38.60;
69224;PMS1003;56333;51.306;17.056;2024-01-10T07:49:33;85.10;30.50;
69224;PMS1003;56333;51.306;17.056;2024-01-10T07:50:58;136.40;46.60;
69224;PMS1003;56333;51.306;17.056;2024-01-10T07:52:22;80.60;30.20;
69224;PMS1003;56333;51.306;17.056;2024-01-10T07:53:46;131.30;46.00;
69224;PMS1003;56333;51.306;17.056;2024-01-10T07:55:11;109.80;36.80;
69224;PMS1003;56333;51.306;17.056;2024-01-10T07:56:35;110.80;38.30;
69224;PMS1003;56333;51.306;17.056;2024-01-10T07:57:59;113.10;37.60;
69224;PMS1003;56333;51.306;17.056;2024-01-10T07:59:24;126.90;43.60;
69224;PMS1003;56333;51.306;17.056;2024-01-10T08:00:48;108.30;39.60;
69224;PMS1003;56333;51.306;17.056;2024-01-10T08:02:14;108.10;40.60;
69224;PMS1003;56333;51.306;17.056;2024-01-10T08:03:38;120.90;41.80;
69224;PMS1003;56333;51.306;17.056;2024-01-10T08:05:03;105.90;35.00;
69224;PMS1003;56333;51.306;17.056;2024-01-10T08:06:28;119.70;41.00;
69224;PMS1003;56333;51.306;17.056;2024-01-10T08:07:52;115.30;40.40;
69224;PMS1003;56333;51.306;17.056;2024-01-10T08:09:16;113.90;40.00;
69224;PMS1003;56333;51.306;17.056;2024-01-10T08:10:42;109.60;39.20;
69224;PMS1003;56333;51.306;17.056;2024-01-10T08:12:07;110.90;36.30;
69224;PMS1003;56333;51.306;17.056;2024-01-10T08:13:32;115.20;40.20;
69224;PMS1003;56333;51.306;17.056;2024-01-10T08:14:56;86.20;31.30;
69224;PMS1003;56333;51.306;17.056;2024-01-10T08:16:20;169.60;57.20;
69224;PMS1003;56333;51.306;17.056;2024-01-10T08:17:44;128.80;43.70;
69224;PMS1003;56333;51.306;17.056;2024-01-10T08:19:09;164.50;52.20;
69224;PMS1003;56333;51.306;17.056;2024-01-10T08:20:34;168.70;55.20;